createdAt,value
2022-09-11T00:01:33.270Z,21.87
2022-09-11T00:04:00.299Z,21.17
2022-09-11T00:06:30.035Z,21.27
2022-09-11T00:09:01.630Z,20.50
2022-09-11T00:11:42.517Z,20.63
2022-09-11T00:14:12.175Z,22.13
2022-09-11T00:16:41.719Z,22.50
2022-09-11T00:19:15.233Z,22.47
2022-09-11T00:21:42.107Z,22.50
2022-09-11T00:24:12.113Z,22.90
2022-09-11T00:26:40.820Z,22.93
2022-09-11T00:29:08.122Z,23.00
2022-09-11T00:31:35.045Z,22.60
2022-09-11T00:34:01.899Z,25.70
2022-09-11T00:36:31.570Z,23.77
2022-09-11T00:38:59.647Z,20.77
2022-09-11T00:41:32.092Z,21.97
2022-09-11T00:44:02.763Z,21.63
2022-09-11T00:46:55.535Z,22.43
2022-09-11T00:49:38.601Z,21.83
2022-09-11T00:52:13.734Z,19.83
2022-09-11T00:54:49.615Z,21.67
2022-09-11T00:57:18.665Z,21.17
2022-09-11T00:59:48.122Z,21.30
2022-09-11T01:02:19.385Z,21.33
2022-09-11T01:04:48.011Z,23.40
2022-09-11T01:07:18.235Z,21.73
2022-09-11T01:09:45.107Z,23.40
2022-09-11T01:12:33.723Z,22.67
2022-09-11T01:15:12.641Z,22.57
2022-09-11T01:17:46.989Z,24.03
2022-09-11T01:20:32.822Z,22.93
2022-09-11T01:23:14.458Z,23.23
2022-09-11T01:25:44.093Z,23.73
2022-09-11T01:28:16.595Z,23.80
2022-09-11T01:30:50.909Z,24.10
2022-09-11T01:33:28.555Z,23.87
2022-09-11T01:36:00.190Z,24.10
2022-09-11T01:38:39.175Z,23.00
2022-09-11T01:41:15.384Z,23.53
2022-09-11T01:43:58.083Z,24.00
2022-09-11T01:46:29.224Z,24.30
2022-09-11T01:49:08.245Z,24.27
2022-09-11T01:51:36.427Z,24.57
2022-09-11T01:54:07.892Z,23.17
2022-09-11T01:56:41.638Z,23.10
2022-09-11T01:59:12.282Z,24.13
2022-09-11T02:01:44.053Z,24.10
2022-09-11T02:04:27.364Z,23.20
2022-09-11T02:07:36.496Z,23.67
2022-09-11T02:10:09.666Z,24.70
2022-09-11T02:12:57.848Z,25.33
2022-09-11T02:15:31.594Z,24.67
2022-09-11T02:18:07.190Z,25.77
2022-09-11T02:20:36.175Z,25.10
2022-09-11T02:23:03.145Z,26.83
2022-09-11T02:25:29.941Z,25.67
2022-09-11T02:27:56.727Z,26.63
2022-09-11T02:30:24.097Z,26.67
2022-09-11T02:32:51.128Z,27.40
2022-09-11T02:35:17.959Z,27.73
2022-09-11T02:37:50.605Z,27.47
2022-09-11T02:40:27.151Z,28.47
2022-09-11T02:43:02.780Z,29.00
2022-09-11T02:45:42.592Z,28.13
2022-09-11T02:48:53.324Z,27.70
2022-09-11T02:51:55.911Z,28.80
2022-09-11T02:54:34.521Z,29.37
2022-09-11T02:57:12.792Z,31.33
2022-09-11T02:59:45.683Z,32.20
2022-09-11T03:02:15.074Z,29.43
2022-09-11T03:04:46.621Z,30.60
2022-09-11T03:07:13.416Z,29.80
2022-09-11T03:09:42.660Z,32.47
2022-09-11T03:12:10.495Z,31.90
2022-09-11T03:14:38.853Z,31.77
2022-09-11T03:17:06.532Z,30.40
2022-09-11T03:19:33.337Z,31.90
2022-09-11T03:22:00.099Z,31.70
2022-09-11T03:24:33.789Z,30.23
2022-09-11T03:27:01.123Z,33.50
2022-09-11T03:29:29.167Z,33.47
2022-09-11T03:31:57.402Z,29.73
2022-09-11T03:34:26.889Z,31.03
2022-09-11T03:36:53.789Z,31.77
2022-09-11T03:39:20.623Z,32.47
2022-09-11T03:41:47.381Z,29.57
2022-09-11T03:44:14.157Z,29.67
2022-09-11T03:46:41.147Z,30.57
2022-09-11T03:49:07.843Z,29.13
2022-09-11T03:51:35.223Z,27.47
2022-09-11T03:54:02.976Z,29.97
2022-09-11T03:56:31.648Z,31.03
2022-09-11T03:59:00.198Z,30.57
2022-09-11T04:01:28.499Z,30.20
2022-09-11T04:03:55.428Z,29.93
2022-09-11T04:06:22.207Z,28.33
2022-09-11T04:08:49.578Z,28.73
2022-09-11T04:11:16.475Z,30.97
2022-09-11T04:13:43.872Z,28.93
2022-09-11T04:16:18.156Z,30.67
2022-09-11T04:18:46.057Z,28.33
2022-09-11T04:21:15.673Z,27.97
2022-09-11T04:23:42.769Z,29.50
2022-09-11T04:26:18.605Z,26.10
2022-09-11T04:28:45.953Z,27.07
2022-09-11T04:31:16.278Z,28.00
2022-09-11T04:33:43.930Z,28.80
2022-09-11T04:36:20.115Z,26.23
2022-09-11T04:38:48.449Z,27.70
2022-09-11T04:41:16.433Z,26.23
2022-09-11T04:43:44.616Z,24.13
2022-09-11T04:46:17.085Z,25.67
2022-09-11T04:48:48.924Z,26.50
2022-09-11T04:51:28.953Z,25.63
2022-09-11T04:54:00.180Z,26.13
2022-09-11T04:56:32.736Z,26.33
2022-09-11T04:59:06.848Z,25.20
2022-09-11T05:01:34.239Z,26.87
2022-09-11T05:04:01.814Z,27.03
2022-09-11T05:06:31.097Z,25.67
2022-09-11T05:09:03.807Z,23.70
2022-09-11T05:11:30.772Z,23.90
2022-09-11T05:14:00.403Z,24.30
2022-09-11T05:16:29.664Z,26.33
2022-09-11T05:18:57.498Z,24.40
2022-09-11T05:21:25.889Z,24.63
2022-09-11T05:23:58.349Z,24.20
2022-09-11T05:26:29.483Z,26.20
2022-09-11T05:29:02.020Z,24.07
2022-09-11T05:31:29.711Z,24.57
2022-09-11T05:33:57.105Z,24.97
2022-09-11T05:36:24.892Z,24.67
2022-09-11T05:38:53.009Z,27.60
2022-09-11T05:41:20.490Z,27.83
2022-09-11T05:43:47.297Z,27.07
2022-09-11T05:46:16.357Z,26.83
2022-09-11T05:48:43.859Z,26.20
2022-09-11T05:51:13.288Z,28.30
2022-09-11T05:53:40.738Z,27.60
2022-09-11T05:56:10.324Z,26.17
2022-09-11T05:58:37.216Z,26.93
2022-09-11T06:01:09.620Z,28.17
2022-09-11T06:03:37.990Z,27.43
2022-09-11T06:06:07.156Z,27.87
2022-09-11T06:08:34.854Z,25.90
2022-09-11T06:11:02.815Z,28.03
2022-09-11T06:13:30.536Z,28.00
2022-09-11T06:15:57.542Z,26.67
2022-09-11T06:18:24.357Z,25.30
2022-09-11T06:21:09.031Z,26.77
2022-09-11T06:23:37.168Z,25.83
2022-09-11T06:26:06.017Z,24.60
2022-09-11T06:28:33.013Z,25.53
2022-09-11T06:31:01.024Z,23.47
2022-09-11T06:33:34.528Z,22.27
2022-09-11T06:36:04.033Z,24.87
2022-09-11T06:38:34.460Z,24.83
2022-09-11T06:41:06.464Z,23.80
2022-09-11T06:43:34.065Z,27.43
2022-09-11T06:46:15.126Z,26.33
2022-09-11T06:48:43.810Z,27.00
2022-09-11T06:51:12.766Z,27.40
2022-09-11T06:53:41.108Z,28.40
2022-09-11T06:56:12.800Z,27.33
2022-09-11T06:58:41.074Z,25.77
2022-09-11T07:01:16.001Z,25.33
2022-09-11T07:03:45.115Z,23.30
2022-09-11T07:06:15.212Z,22.20
2022-09-11T07:08:41.980Z,24.60
2022-09-11T07:11:09.932Z,22.47
2022-09-11T07:13:38.579Z,24.60
2022-09-11T07:16:14.545Z,22.67
2022-09-11T07:18:46.309Z,21.57
2022-09-11T07:21:23.200Z,20.50
2022-09-11T07:23:55.028Z,20.57
2022-09-11T07:26:24.135Z,20.43
2022-09-11T07:28:51.681Z,19.97
2022-09-11T07:31:29.621Z,19.57
2022-09-11T07:33:57.243Z,20.00
2022-09-11T07:36:31.007Z,20.67
2022-09-11T07:38:58.904Z,19.17
2022-09-11T07:41:27.064Z,20.27
2022-09-11T07:43:55.740Z,19.77
2022-09-11T07:46:22.996Z,20.37
2022-09-11T07:48:54.203Z,20.10
2022-09-11T07:51:21.228Z,20.00
2022-09-11T07:53:50.779Z,19.13
2022-09-11T07:56:23.834Z,19.13
2022-09-11T07:58:52.690Z,19.60
2022-09-11T08:01:21.898Z,17.70
2022-09-11T08:03:53.457Z,18.40
2022-09-11T08:06:22.526Z,16.33
2022-09-11T08:08:56.634Z,17.07
2022-09-11T08:11:26.533Z,17.07
2022-09-11T08:13:54.864Z,16.73
2022-09-11T08:16:25.531Z,16.63
2022-09-11T08:18:52.849Z,16.27
2022-09-11T08:21:20.511Z,14.93
2022-09-11T08:23:49.157Z,15.23
2022-09-11T08:26:22.704Z,15.80
2022-09-11T08:28:52.821Z,15.40
2022-09-11T08:31:22.372Z,14.40
2022-09-11T08:33:53.046Z,16.10
2022-09-11T08:36:20.340Z,13.47
2022-09-11T08:38:47.730Z,14.93
2022-09-11T08:41:39.715Z,14.57
2022-09-11T08:44:16.604Z,15.50
2022-09-11T08:46:48.046Z,15.33
2022-09-11T08:49:35.234Z,13.40
2022-09-11T08:52:05.501Z,13.77
2022-09-11T08:54:37.463Z,13.60
2022-09-11T08:57:29.652Z,12.97
2022-09-11T09:00:14.607Z,13.83
2022-09-11T09:02:41.737Z,12.17
2022-09-11T09:05:56.028Z,12.37
2022-09-11T09:08:57.135Z,12.83
2022-09-11T09:11:39.091Z,12.60
2022-09-11T09:14:29.629Z,13.10
2022-09-11T09:17:19.839Z,12.43
2022-09-11T09:20:15.696Z,12.07
2022-09-11T09:22:59.269Z,12.50
2022-09-11T09:25:26.891Z,13.27
2022-09-11T09:28:01.887Z,13.43
2022-09-11T09:30:34.537Z,14.07
2022-09-11T09:33:25.996Z,14.07
2022-09-11T09:35:54.572Z,13.90
2022-09-11T09:38:29.211Z,12.93
2022-09-11T09:41:21.535Z,12.60
2022-09-11T09:43:57.798Z,12.80
2022-09-11T09:46:24.469Z,12.80
2022-09-11T09:48:52.095Z,12.47
2022-09-11T09:51:19.047Z,12.40
2022-09-11T09:54:04.359Z,13.60
2022-09-11T09:56:34.611Z,12.03
2022-09-11T09:59:18.161Z,12.53
2022-09-11T10:01:51.593Z,13.47
2022-09-11T10:04:22.469Z,13.00
2022-09-11T10:06:52.194Z,14.40
2022-09-11T10:09:27.202Z,14.70
2022-09-11T10:12:02.689Z,15.83
2022-09-11T10:14:50.992Z,14.50
2022-09-11T10:17:23.612Z,13.97
2022-09-11T10:19:53.430Z,14.97
2022-09-11T10:22:32.437Z,13.80
2022-09-11T10:25:00.665Z,12.27
2022-09-11T10:27:31.166Z,10.70
2022-09-11T10:29:59.063Z,11.27
2022-09-11T10:32:29.156Z,10.90
2022-09-11T10:34:57.296Z,9.87
2022-09-11T10:37:28.156Z,8.80
2022-09-11T10:40:05.962Z,8.77
2022-09-11T10:42:35.380Z,8.20
2022-09-11T10:45:17.020Z,8.13
2022-09-11T10:47:46.466Z,7.07
2022-09-11T10:50:21.760Z,7.15
2022-09-11T10:53:09.717Z,7.75
2022-09-11T10:55:49.128Z,7.35
2022-09-11T10:58:23.944Z,7.45
2022-09-11T11:00:51.962Z,5.57
2022-09-11T11:03:25.851Z,6.05
2022-09-11T11:06:34.367Z,7.00
2022-09-11T11:09:13.196Z,6.60
2022-09-11T11:12:09.523Z,6.30
2022-09-11T11:14:54.848Z,7.18
2022-09-11T11:17:41.241Z,6.07
2022-09-11T11:20:37.305Z,6.50
2022-09-11T11:23:24.226Z,5.83
2022-09-11T11:26:00.576Z,5.82
2022-09-11T11:28:53.666Z,6.60
2022-09-11T11:31:54.039Z,5.32
2022-09-11T11:34:36.795Z,4.30
2022-09-11T11:37:12.444Z,4.82
2022-09-11T11:39:48.008Z,4.82
2022-09-11T11:42:31.642Z,5.60
2022-09-11T11:45:09.559Z,4.45
2022-09-11T11:47:42.491Z,4.18
2022-09-11T11:50:22.034Z,3.92
2022-09-11T11:53:02.896Z,3.60
2022-09-11T11:55:45.312Z,4.32
2022-09-11T11:58:41.802Z,4.18
2022-09-11T12:01:21.088Z,4.10
2022-09-11T12:04:11.142Z,3.72
2022-09-11T12:06:38.393Z,4.15
2022-09-11T12:09:10.100Z,3.58
2022-09-11T12:11:41.472Z,3.80
2022-09-11T12:14:27.851Z,4.20
2022-09-11T12:16:56.467Z,3.88
2022-09-11T12:19:28.724Z,3.13
2022-09-11T12:21:56.814Z,3.40
2022-09-11T12:24:55.597Z,3.15
2022-09-11T12:27:35.699Z,2.72
2022-09-11T12:30:24.948Z,2.70
2022-09-11T12:33:01.245Z,2.63
2022-09-11T12:35:32.662Z,2.25
2022-09-11T12:38:13.343Z,2.78
2022-09-11T12:40:48.661Z,2.40
2022-09-11T12:43:39.734Z,2.90
2022-09-11T12:46:36.733Z,2.95
2022-09-11T12:49:22.951Z,3.25
2022-09-11T12:52:01.410Z,3.17
2022-09-11T12:54:42.610Z,3.20
2022-09-11T12:57:20.436Z,3.22
2022-09-11T12:59:55.888Z,3.22
2022-09-11T13:02:36.658Z,3.75
2022-09-11T13:05:16.094Z,3.45
2022-09-11T13:07:49.557Z,3.13
2022-09-11T13:10:37.201Z,3.60
2022-09-11T13:13:35.723Z,4.00
2022-09-11T13:16:29.456Z,3.28
2022-09-11T13:19:17.831Z,3.25
2022-09-11T13:21:45.831Z,2.95
2022-09-11T13:24:27.516Z,3.22
2022-09-11T13:27:24.012Z,3.42
2022-09-11T13:29:55.920Z,3.42
2022-09-11T13:32:25.307Z,3.90
2022-09-11T13:35:01.970Z,3.53
2022-09-11T13:37:44.075Z,3.60
2022-09-11T13:40:41.884Z,4.10
2022-09-11T13:43:20.157Z,4.20
2022-09-11T13:45:47.510Z,4.60
2022-09-11T13:48:24.183Z,3.92
2022-09-11T13:50:52.371Z,4.15
2022-09-11T13:53:20.015Z,3.25
2022-09-11T13:55:49.206Z,3.55
2022-09-11T13:58:35.210Z,3.72
2022-09-11T14:01:12.732Z,4.30
2022-09-11T14:03:45.826Z,4.13
2022-09-11T14:06:20.025Z,4.60
2022-09-11T14:08:55.269Z,4.50
2022-09-11T14:11:31.849Z,4.75
2022-09-11T14:14:11.778Z,4.45
2022-09-11T14:16:47.984Z,5.13
2022-09-11T14:19:31.014Z,5.30
2022-09-11T14:21:58.621Z,4.77
2022-09-11T14:24:35.886Z,7.32
2022-09-11T14:27:33.032Z,5.18
2022-09-11T14:30:00.625Z,4.70
2022-09-11T14:32:37.943Z,4.10
2022-09-11T14:35:10.076Z,5.03
2022-09-11T14:37:45.643Z,4.10
2022-09-11T14:40:19.440Z,4.20
2022-09-11T14:42:48.456Z,4.45
2022-09-11T14:45:22.392Z,4.47
2022-09-11T14:47:49.430Z,4.40
2022-09-11T14:50:16.747Z,5.33
2022-09-11T14:52:43.881Z,7.03
2022-09-11T14:55:15.898Z,8.17
2022-09-11T14:57:42.769Z,7.70
2022-09-11T15:00:13.546Z,7.87
2022-09-11T15:02:40.248Z,8.20
2022-09-11T15:05:21.703Z,8.03
2022-09-11T15:07:49.199Z,7.85
2022-09-11T15:10:16.593Z,8.02
2022-09-11T15:12:44.507Z,8.18
2022-09-11T15:15:11.590Z,7.97
2022-09-11T15:17:38.740Z,7.70
2022-09-11T15:20:11.404Z,6.57
2022-09-11T15:22:38.461Z,7.07
2022-09-11T15:25:05.890Z,6.07
2022-09-11T15:27:32.664Z,8.07
2022-09-11T15:30:00.549Z,6.95
2022-09-11T15:32:27.492Z,6.65
2022-09-11T15:34:54.820Z,6.90
2022-09-11T15:37:21.576Z,5.97
2022-09-11T15:39:50.344Z,5.97
2022-09-11T15:42:17.513Z,6.10
2022-09-11T15:44:46.192Z,6.10
2022-09-11T15:47:13.805Z,5.28
2022-09-11T15:49:42.271Z,6.22
2022-09-11T15:52:09.228Z,6.25
2022-09-11T15:54:35.984Z,6.63
2022-09-11T15:57:02.869Z,6.18
2022-09-11T15:59:29.629Z,6.35
2022-09-11T16:01:56.480Z,6.35
2022-09-11T16:04:28.256Z,5.68
2022-09-11T16:06:55.445Z,6.43
2022-09-11T16:09:25.540Z,5.67
2022-09-11T16:11:54.466Z,6.75
2022-09-11T16:14:33.778Z,5.63
2022-09-11T16:17:02.978Z,6.18
2022-09-11T16:19:30.508Z,5.20
2022-09-11T16:21:59.028Z,5.47
2022-09-11T16:24:28.282Z,6.30
2022-09-11T16:26:55.922Z,5.13
2022-09-11T16:29:24.598Z,5.97
2022-09-11T16:31:51.455Z,5.60
2022-09-11T16:34:18.168Z,5.53
2022-09-11T16:36:46.153Z,5.47
2022-09-11T16:39:15.941Z,5.53
2022-09-11T16:41:43.228Z,6.20
2022-09-11T16:44:13.048Z,4.90
2022-09-11T16:46:40.799Z,4.97
2022-09-11T16:49:08.812Z,5.20
2022-09-11T16:51:35.697Z,6.03
2022-09-11T16:54:04.360Z,6.27
2022-09-11T16:56:31.606Z,4.80
2022-09-11T16:58:59.856Z,5.77
2022-09-11T17:01:27.920Z,5.20
2022-09-11T17:03:57.270Z,5.43
2022-09-11T17:06:31.169Z,5.30
2022-09-11T17:09:00.363Z,5.20
2022-09-11T17:11:29.676Z,4.80
2022-09-11T17:13:56.667Z,5.50
2022-09-11T17:16:28.010Z,4.70
2022-09-11T17:18:56.744Z,4.57
2022-09-11T17:21:24.677Z,5.20
2022-09-11T17:23:53.604Z,5.33
2022-09-11T17:26:21.317Z,5.43
2022-09-11T17:28:49.388Z,4.83
2022-09-11T17:31:19.158Z,5.27
2022-09-11T17:33:46.882Z,5.40
2022-09-11T17:36:17.194Z,5.27
2022-09-11T17:38:46.173Z,6.17
2022-09-11T17:41:14.578Z,6.17
2022-09-11T17:43:41.336Z,6.07
2022-09-11T17:46:18.072Z,6.13
2022-09-11T17:48:45.716Z,6.63
2022-09-11T17:51:24.625Z,6.20
2022-09-11T17:53:56.143Z,6.70
2022-09-11T17:56:25.810Z,6.60
2022-09-11T17:58:54.430Z,6.63
2022-09-11T18:01:23.408Z,6.70
2022-09-11T18:03:52.675Z,6.70
2022-09-11T18:06:25.431Z,7.67
2022-09-11T18:08:53.005Z,7.17
2022-09-11T18:11:19.854Z,7.03
2022-09-11T18:13:46.593Z,7.50
2022-09-11T18:16:13.405Z,7.00
2022-09-11T18:18:40.204Z,7.10
2022-09-11T18:21:09.535Z,7.20
2022-09-11T18:23:39.756Z,7.67
2022-09-11T18:26:09.748Z,7.53
2022-09-11T18:28:40.391Z,7.90
2022-09-11T18:31:07.196Z,8.23
2022-09-11T18:33:34.208Z,8.87
2022-09-11T18:36:07.966Z,7.77
2022-09-11T18:38:35.525Z,7.97
2022-09-11T18:41:02.264Z,7.37
2022-09-11T18:43:30.788Z,7.93
2022-09-11T18:46:02.082Z,8.30
2022-09-11T18:48:28.869Z,7.97
2022-09-11T18:51:00.058Z,8.27
2022-09-11T18:53:27.103Z,8.27
2022-09-11T18:56:07.056Z,8.57
2022-09-11T18:58:37.423Z,7.87
2022-09-11T19:01:10.539Z,8.43
2022-09-11T19:03:40.923Z,9.07
2022-09-11T19:06:12.804Z,8.60
2022-09-11T19:08:42.733Z,8.80
2022-09-11T19:11:13.068Z,8.47
2022-09-11T19:13:41.431Z,8.97
2022-09-11T19:16:09.203Z,9.07
2022-09-11T19:18:41.903Z,9.80
2022-09-11T19:21:14.668Z,8.60
2022-09-11T19:23:43.776Z,9.47
2022-09-11T19:26:22.889Z,9.17
2022-09-11T19:28:51.051Z,10.37
2022-09-11T19:31:21.734Z,9.07
2022-09-11T19:33:50.075Z,10.23
2022-09-11T19:36:21.623Z,10.13
2022-09-11T19:38:52.132Z,9.90
2022-09-11T19:41:21.591Z,9.13
2022-09-11T19:46:56.250Z,9.80
2022-09-11T19:49:23.454Z,10.30
2022-09-11T19:51:53.309Z,9.80
2022-09-11T19:54:20.039Z,10.70
2022-09-11T19:56:49.656Z,10.47
2022-09-11T19:59:16.946Z,11.00
2022-09-11T20:01:44.217Z,10.50
2022-09-11T20:04:13.147Z,11.73
2022-09-11T20:06:41.368Z,10.70
2022-09-11T20:09:29.858Z,11.47
2022-09-11T20:11:55.564Z,10.53
2022-09-11T20:14:23.062Z,11.57
2022-09-11T20:16:49.835Z,11.67
2022-09-11T20:19:17.345Z,11.03
2022-09-11T20:21:44.447Z,10.70
2022-09-11T20:24:11.247Z,11.10
2022-09-11T20:26:38.211Z,11.53
2022-09-11T20:29:08.719Z,10.97
2022-09-11T20:31:46.518Z,11.07
2022-09-11T20:34:15.094Z,11.37
2022-09-11T20:36:43.051Z,11.03
2022-09-11T20:39:13.780Z,12.03
2022-09-11T20:41:42.810Z,12.13
2022-09-11T20:44:10.355Z,12.40
2022-09-11T20:46:37.322Z,11.50
2022-09-11T20:49:05.224Z,13.13
2022-09-11T20:51:32.986Z,12.47
2022-09-11T20:54:00.577Z,13.37
2022-09-11T20:56:28.290Z,12.40
2022-09-11T20:58:56.714Z,12.40
2022-09-11T21:01:25.450Z,13.23
2022-09-11T21:03:55.250Z,12.83
2022-09-11T21:06:27.029Z,13.53
2022-09-11T21:08:56.734Z,13.00
2022-09-11T21:11:25.064Z,13.30
2022-09-11T21:13:52.207Z,12.80
2022-09-11T21:16:20.042Z,12.77
2022-09-11T21:18:54.002Z,11.90
2022-09-11T21:21:22.667Z,12.30
2022-09-11T21:23:54.329Z,11.73
2022-09-11T21:26:22.548Z,11.63
2022-09-11T21:28:49.276Z,11.87
2022-09-11T21:31:16.140Z,12.03
2022-09-11T21:33:43.374Z,12.83
2022-09-11T21:36:10.168Z,11.73
2022-09-11T21:38:37.495Z,13.43
2022-09-11T21:41:06.596Z,12.60
2022-09-11T21:43:33.686Z,12.20
2022-09-11T21:46:00.825Z,12.80
2022-09-11T21:48:28.865Z,13.03
2022-09-11T21:51:06.419Z,12.27
2022-09-11T21:53:33.206Z,12.70
2022-09-11T21:56:00.075Z,12.13
2022-09-11T21:58:26.844Z,12.20
2022-09-11T22:00:53.766Z,11.57
2022-09-11T22:03:20.783Z,12.20
2022-09-11T22:05:49.236Z,12.40
2022-09-11T22:08:18.467Z,10.67
2022-09-11T22:10:49.162Z,11.33
2022-09-11T22:13:18.604Z,11.47
2022-09-11T22:15:47.661Z,11.60
2022-09-11T22:18:15.260Z,12.47
2022-09-11T22:20:42.840Z,12.27
2022-09-11T22:23:22.396Z,11.90
2022-09-11T22:26:07.733Z,12.57
2022-09-11T22:28:35.604Z,12.30
2022-09-11T22:31:10.668Z,12.00
2022-09-11T22:33:38.861Z,12.83
2022-09-11T22:36:16.903Z,12.87
2022-09-11T22:38:43.751Z,12.70
2022-09-11T22:41:10.512Z,13.03
2022-09-11T22:43:38.417Z,14.03
2022-09-11T22:46:06.314Z,12.50
2022-09-11T22:48:33.488Z,14.50
2022-09-11T22:51:01.850Z,14.30
2022-09-11T22:53:29.240Z,14.90
2022-09-11T22:55:56.200Z,14.33
2022-09-11T22:58:23.912Z,14.70
2022-09-11T23:00:53.852Z,14.60
2022-09-11T23:03:20.701Z,14.60
2022-09-11T23:06:05.941Z,14.17
2022-09-11T23:08:39.161Z,13.67
2022-09-11T23:11:06.715Z,14.97
2022-09-11T23:13:34.049Z,14.00
2022-09-11T23:16:01.037Z,15.87
2022-09-11T23:18:28.331Z,15.27
2022-09-11T23:20:56.776Z,13.97
2022-09-11T23:23:25.486Z,15.13
2022-09-11T23:25:52.210Z,14.67
2022-09-11T23:28:19.320Z,13.97
2022-09-11T23:30:46.088Z,14.63
2022-09-11T23:33:12.894Z,14.30
2022-09-11T23:35:40.372Z,14.80
2022-09-11T23:38:08.002Z,14.70
2022-09-11T23:40:35.250Z,14.73
2022-09-11T23:43:03.176Z,16.40
2022-09-11T23:45:29.996Z,16.40
2022-09-11T23:47:57.953Z,15.93
2022-09-11T23:50:24.652Z,16.67
2022-09-11T23:52:51.416Z,16.40
2022-09-11T23:55:19.650Z,17.17
2022-09-11T23:57:47.882Z,16.50
